Time;durP1;ratioP1;P1;durP2;ratioP2;P2;SDS_P1;SDS_P2;PMS_P1;PMS_P2;Temp;Humidity;BMP_temperature;BMP_pressure;BME280_temperature;BME280_humidity;BME280_pressure;Samples;Min_cycle;Max_cycle;Signal;HPM_P1;HPM_P2
2022/07/22 00:00:55;;;;;;;0.45;0.45;;;24.80;60.50;;;;;;5084545;27;21833;-19
2022/07/22 00:03:21;;;;;;;0.60;0.60;;;24.90;60.60;;;;;;5077549;28;20502;-19
2022/07/22 00:05:46;;;;;;;0.50;0.50;;;24.80;60.60;;;;;;5082078;27;20170;-19
2022/07/22 00:08:12;;;;;;;0.40;0.40;;;24.90;60.50;;;;;;5083037;27;20541;-18
2022/07/22 00:10:37;;;;;;;0.40;0.40;;;24.80;60.50;;;;;;5080307;27;20093;-19
2022/07/22 00:13:03;;;;;;;0.40;0.40;;;24.80;60.50;;;;;;5082195;27;20044;-17
2022/07/22 00:15:29;;;;;;;0.50;0.50;;;24.80;60.50;;;;;;5081217;27;20400;-19
2022/07/22 00:17:54;;;;;;;0.30;0.30;;;24.90;60.30;;;;;;5080255;27;20521;-19
2022/07/22 00:20:20;;;;;;;0.30;0.30;;;24.90;60.40;;;;;;5078365;27;20128;-19
2022/07/22 00:22:45;;;;;;;0.40;0.40;;;24.90;60.40;;;;;;5083255;28;20111;-18
2022/07/22 00:25:11;;;;;;;1.33;0.57;;;24.90;60.40;;;;;;5077009;27;20453;-19
2022/07/22 00:27:37;;;;;;;0.40;0.40;;;24.90;60.30;;;;;;5075776;27;20100;-19
2022/07/22 00:30:03;;;;;;;0.40;0.40;;;24.90;60.40;;;;;;5076025;27;20109;-19
2022/07/22 00:32:29;;;;;;;0.35;0.35;;;24.90;60.30;;;;;;5076413;27;20565;-19
2022/07/22 00:34:54;;;;;;;0.45;0.45;;;24.90;60.30;;;;;;5075869;28;20472;-25
2022/07/22 00:37:20;;;;;;;0.32;0.32;;;24.90;60.50;;;;;;5076653;27;20048;-22
2022/07/22 00:39:47;;;;;;;0.40;0.40;;;24.90;60.30;;;;;;5074483;27;20044;-22
2022/07/22 00:42:13;;;;;;;0.40;0.40;;;24.90;60.40;;;;;;5075576;27;20041;-23
2022/07/22 00:44:39;;;;;;;0.40;0.40;;;24.80;60.30;;;;;;5074414;27;20043;-24
2022/07/22 00:47:05;;;;;;;0.32;0.32;;;24.80;60.30;;;;;;5076820;28;20041;-26
2022/07/22 00:49:30;;;;;;;0.40;0.40;;;24.80;60.40;;;;;;5077254;28;20052;-26
2022/07/22 00:51:56;;;;;;;0.40;0.40;;;24.80;60.50;;;;;;5079289;28;20093;-24
2022/07/22 00:54:21;;;;;;;0.40;0.40;;;24.90;60.30;;;;;;5076562;28;20506;-24
2022/07/22 00:56:47;;;;;;;0.73;0.73;;;24.80;60.40;;;;;;5075628;27;20109;-23
2022/07/22 00:59:13;;;;;;;0.43;0.43;;;24.80;60.50;;;;;;5073619;27;20037;-22
2022/07/22 01:01:38;;;;;;;0.40;0.40;;;24.80;60.40;;;;;;5075359;27;20041;-22
2022/07/22 01:04:04;;;;;;;0.38;0.38;;;24.80;60.50;;;;;;5079049;27;20506;-25
2022/07/22 01:06:30;;;;;;;0.40;0.40;;;24.80;60.50;;;;;;5074703;27;20127;-25
2022/07/22 01:08:56;;;;;;;0.40;0.40;;;24.80;60.40;;;;;;5073918;27;20101;-24
2022/07/22 01:11:21;;;;;;;0.47;0.47;;;24.80;60.20;;;;;;5076563;27;20069;-30
2022/07/22 01:13:48;;;;;;;0.20;0.20;;;24.80;60.30;;;;;;5075955;28;20097;-23
2022/07/22 01:16:14;;;;;;;0.40;0.40;;;24.80;60.40;;;;;;5075533;27;20044;-23
2022/07/22 01:18:39;;;;;;;0.40;0.40;;;24.80;60.40;;;;;;5076347;28;20080;-23
2022/07/22 01:21:05;;;;;;;0.50;0.50;;;24.80;60.40;;;;;;5074537;27;20045;-23
2022/07/22 01:23:31;;;;;;;0.47;0.47;;;24.80;60.20;;;;;;5078313;28;20051;-21
2022/07/22 01:25:56;;;;;;;0.30;0.30;;;24.80;60.20;;;;;;5073576;27;20074;-23
2022/07/22 01:28:22;;;;;;;0.45;0.45;;;24.80;60.20;;;;;;5077680;28;20402;-22
2022/07/22 01:30:49;;;;;;;0.40;0.40;;;24.80;60.20;;;;;;5079102;27;20043;-22
2022/07/22 01:33:16;;;;;;;0.52;0.32;;;24.80;60.20;;;;;;5080841;27;20583;-26
2022/07/22 01:35:41;;;;;;;0.35;0.35;;;24.80;60.10;;;;;;5079789;27;20040;-24
2022/07/22 01:38:07;;;;;;;0.38;0.38;;;24.80;60.10;;;;;;5078526;28;20123;-26
2022/07/22 01:40:33;;;;;;;0.38;0.38;;;24.80;60.30;;;;;;5078408;27;20545;-21
2022/07/22 01:42:58;;;;;;;1.27;0.30;;;24.70;60.30;;;;;;5078206;28;20060;-23
2022/07/22 01:45:24;;;;;;;0.40;0.40;;;24.70;60.30;;;;;;5078730;27;20445;-23
2022/07/22 01:47:50;;;;;;;0.60;0.50;;;24.70;60.30;;;;;;5078498;27;20191;-24
2022/07/22 01:50:15;;;;;;;0.50;0.50;;;24.70;60.30;;;;;;5077502;28;20043;-24
2022/07/22 01:52:41;;;;;;;0.57;0.57;;;24.70;60.30;;;;;;5079138;27;20521;-25
2022/07/22 01:55:07;;;;;;;0.30;0.30;;;24.70;60.30;;;;;;5085835;27;20075;-24
2022/07/22 01:57:33;;;;;;;0.50;0.50;;;24.70;60.20;;;;;;5084019;27;20140;-23
2022/07/22 01:59:58;;;;;;;0.50;0.50;;;24.70;60.20;;;;;;5082213;28;20048;-22
2022/07/22 02:02:24;;;;;;;0.30;0.30;;;24.70;60.30;;;;;;5083894;27;20071;-21
2022/07/22 02:04:50;;;;;;;0.50;0.50;;;24.70;60.30;;;;;;5082768;27;20036;-22
2022/07/22 02:07:15;;;;;;;0.30;0.30;;;24.70;60.30;;;;;;5086520;27;20135;-25
2022/07/22 02:09:41;;;;;;;0.25;0.25;;;24.70;60.20;;;;;;5083921;27;20085;-23
2022/07/22 02:12:07;;;;;;;0.30;0.30;;;24.70;60.20;;;;;;5084734;27;20516;-22
2022/07/22 02:14:32;;;;;;;0.38;0.38;;;24.70;60.20;;;;;;5082294;27;20048;-26
2022/07/22 02:16:58;;;;;;;0.40;0.40;;;24.70;60.10;;;;;;5084975;27;20031;-23
2022/07/22 02:19:23;;;;;;;0.30;0.30;;;24.70;60.10;;;;;;5084886;27;20406;-21
2022/07/22 02:21:49;;;;;;;0.38;0.38;;;24.70;60.30;;;;;;5085907;27;20080;-23
2022/07/22 02:24:14;;;;;;;0.50;0.50;;;24.70;60.30;;;;;;5077317;28;20035;-21
2022/07/22 02:26:40;;;;;;;0.40;0.40;;;24.70;60.30;;;;;;5079456;27;20425;-23
2022/07/22 02:29:06;;;;;;;0.30;0.30;;;24.70;60.30;;;;;;5080110;28;20460;-21
2022/07/22 02:31:31;;;;;;;0.30;0.30;;;24.70;60.30;;;;;;5075639;27;20036;-23
2022/07/22 02:33:57;;;;;;;0.40;0.40;;;24.70;60.30;;;;;;5079372;27;20028;-22
2022/07/22 02:36:22;;;;;;;0.40;0.40;;;24.70;60.30;;;;;;5076623;28;20470;-23
2022/07/22 02:38:48;;;;;;;0.45;0.45;;;24.70;60.30;;;;;;5076432;28;20051;-24
2022/07/22 02:41:13;;;;;;;0.43;0.43;;;24.70;60.30;;;;;;5078192;27;20389;-22
2022/07/22 02:43:39;;;;;;;0.40;0.40;;;24.70;60.40;;;;;;5074964;28;20052;-23
2022/07/22 02:46:05;;;;;;;0.30;0.30;;;24.70;60.30;;;;;;5077717;27;20506;-22
2022/07/22 02:48:30;;;;;;;0.35;0.35;;;24.60;60.30;;;;;;5079969;27;22610;-21
2022/07/22 02:50:56;;;;;;;0.20;0.20;;;24.70;60.70;;;;;;5076276;27;20104;-23
2022/07/22 02:53:21;;;;;;;0.32;0.32;;;24.70;60.30;;;;;;5075891;28;20035;-22
2022/07/22 02:55:47;;;;;;;0.38;0.38;;;24.70;60.30;;;;;;5076708;27;20040;-21
2022/07/22 02:58:12;;;;;;;0.30;0.30;;;24.70;60.30;;;;;;5077601;27;20180;-20
2022/07/22 03:00:38;;;;;;;0.30;0.30;;;24.60;60.20;;;;;;5077682;28;20083;-24
2022/07/22 03:03:04;;;;;;;0.40;0.40;;;24.60;60.20;;;;;;5076523;28;20102;-21
2022/07/22 03:05:30;;;;;;;0.22;0.22;;;24.70;60.30;;;;;;5074242;27;20690;-22
2022/07/22 03:07:55;;;;;;;0.50;0.50;;;24.70;60.10;;;;;;5076820;28;20072;-26
2022/07/22 03:10:21;;;;;;;0.43;0.43;;;24.60;60.20;;;;;;5077718;27;20562;-21
2022/07/22 03:12:46;;;;;;;0.43;0.43;;;24.60;60.20;;;;;;5077165;27;20044;-23
2022/07/22 03:15:12;;;;;;;0.32;0.32;;;24.60;60.20;;;;;;5077930;28;20055;-21
2022/07/22 03:17:38;;;;;;;1.55;0.50;;;24.60;60.40;;;;;;5075649;27;20090;-23
2022/07/22 03:20:07;;;;;;;0.30;0.30;;;24.60;60.40;;;;;;5077321;27;20502;-27
2022/07/22 03:22:33;;;;;;;0.35;0.35;;;24.60;60.30;;;;;;5077325;27;20044;-22
2022/07/22 03:24:59;;;;;;;0.30;0.30;;;24.60;60.30;;;;;;5075479;28;20039;-23
2022/07/22 03:27:25;;;;;;;0.38;0.38;;;24.60;60.30;;;;;;5075809;28;20094;-23
2022/07/22 03:29:50;;;;;;;0.32;0.32;;;24.60;60.30;;;;;;5074887;28;20048;-22
2022/07/22 03:32:16;;;;;;;0.35;0.35;;;24.60;60.40;;;;;;5077038;27;20048;-22
2022/07/22 03:34:41;;;;;;;0.40;0.40;;;24.60;60.30;;;;;;5076373;28;20083;-22
2022/07/22 03:37:07;;;;;;;0.38;0.38;;;24.60;60.30;;;;;;5079153;28;20044;-22
2022/07/22 03:39:33;;;;;;;0.40;0.40;;;24.60;60.50;;;;;;5074976;27;20052;-24
2022/07/22 03:41:58;;;;;;;0.40;0.40;;;24.60;60.40;;;;;;5075358;27;20570;-21
2022/07/22 03:44:24;;;;;;;0.40;0.40;;;24.50;60.30;;;;;;5074570;27;20047;-22
2022/07/22 03:46:49;;;;;;;0.38;0.35;;;24.60;60.40;;;;;;5077136;27;20040;-21
2022/07/22 03:49:15;;;;;;;0.40;0.40;;;24.50;60.50;;;;;;5076804;28;20050;-22
2022/07/22 03:51:40;;;;;;;0.50;0.40;;;24.50;60.50;;;;;;5077258;27;20047;-26
2022/07/22 03:54:06;;;;;;;0.45;0.45;;;24.50;60.50;;;;;;5078202;27;20048;-24
2022/07/22 03:56:32;;;;;;;0.43;0.43;;;24.50;60.50;;;;;;5076796;27;20462;-22
2022/07/22 03:58:57;;;;;;;0.40;0.40;;;24.60;60.50;;;;;;5078094;27;20054;-25
2022/07/22 04:01:23;;;;;;;0.38;0.38;;;24.50;60.50;;;;;;5079100;27;20123;-22
2022/07/22 04:03:48;;;;;;;0.38;0.38;;;24.50;60.50;;;;;;5078655;27;20051;-22
2022/07/22 04:06:15;;;;;;;0.52;0.30;;;24.50;60.50;;;;;;5077924;27;20119;-29
2022/07/22 04:08:40;;;;;;;0.60;0.60;;;24.50;60.50;;;;;;5074008;28;20051;-22
2022/07/22 04:11:06;;;;;;;0.45;0.28;;;24.50;60.60;;;;;;5078260;27;20028;-27
2022/07/22 04:13:31;;;;;;;0.50;0.50;;;24.50;60.50;;;;;;5077690;27;20410;-23
2022/07/22 04:15:57;;;;;;;0.40;0.40;;;24.50;60.50;;;;;;5079476;28;20117;-23
2022/07/22 04:18:22;;;;;;;0.50;0.50;;;24.50;60.50;;;;;;5076221;27;20429;-22
2022/07/22 04:20:48;;;;;;;0.47;0.32;;;24.50;60.50;;;;;;5073140;27;20128;-22
2022/07/22 04:23:14;;;;;;;0.30;0.30;;;24.50;60.50;;;;;;5077739;27;20517;-25
2022/07/22 04:25:40;;;;;;;0.30;0.30;;;24.50;60.50;;;;;;5075016;28;20098;-24
2022/07/22 04:28:06;;;;;;;0.35;0.35;;;24.50;60.50;;;;;;5076717;28;20118;-22
2022/07/22 04:30:31;;;;;;;0.47;0.40;;;24.50;60.60;;;;;;5075413;28;20028;-25
2022/07/22 04:32:58;;;;;;;0.30;0.30;;;24.50;60.50;;;;;;5076731;27;20047;-24
2022/07/22 04:35:24;;;;;;;0.30;0.30;;;24.50;60.50;;;;;;5073274;28;20046;-23
2022/07/22 04:37:49;;;;;;;0.40;0.40;;;24.50;60.50;;;;;;5080125;27;20115;-25
2022/07/22 04:40:15;;;;;;;0.52;0.52;;;24.50;60.60;;;;;;5080798;27;20558;-22
2022/07/22 04:42:41;;;;;;;0.30;0.30;;;24.50;60.60;;;;;;5082947;28;20402;-24
2022/07/22 04:45:06;;;;;;;0.55;0.50;;;24.50;60.70;;;;;;5082120;27;20028;-36
2022/07/22 04:47:32;;;;;;;0.40;0.40;;;24.50;61.50;;;;;;5079008;28;20032;-21
2022/07/22 04:49:57;;;;;;;0.40;0.40;;;24.50;60.70;;;;;;5080706;27;20060;-29
2022/07/22 04:52:23;;;;;;;0.20;0.20;;;24.50;60.60;;;;;;5082438;27;20052;-23
2022/07/22 04:54:49;;;;;;;0.30;0.30;;;24.50;60.60;;;;;;5081220;27;20093;-28
2022/07/22 04:57:14;;;;;;;0.30;0.30;;;24.50;60.60;;;;;;5083450;27;20040;-21
2022/07/22 04:59:40;;;;;;;1.38;0.50;;;24.50;60.60;;;;;;5079868;27;20048;-23
2022/07/22 05:02:06;;;;;;;2.33;1.27;;;24.40;60.90;;;;;;5083476;27;20400;-22
2022/07/22 05:04:31;;;;;;;2.65;2.55;;;24.20;62.90;;;;;;5080737;28;20046;-24
2022/07/22 05:06:57;;;;;;;2.50;2.30;;;23.80;64.30;;;;;;4375613;27;10000761;-21
2022/07/22 05:09:22;;;;;;;2.92;2.60;;;23.60;65.20;;;;;;5072804;28;20708;-30
2022/07/22 05:11:48;;;;;;;2.45;2.25;;;23.40;66.00;;;;;;5076655;27;20047;-26
2022/07/22 05:14:13;;;;;;;2.72;2.53;;;23.30;66.60;;;;;;5073692;28;20062;-22
2022/07/22 05:16:39;;;;;;;2.65;2.45;;;23.20;66.90;;;;;;5075080;27;20461;-22
2022/07/22 05:19:05;;;;;;;4.00;2.97;;;23.20;67.00;;;;;;5073650;27;20044;-21
2022/07/22 05:21:31;;;;;;;3.72;2.55;;;23.20;67.20;;;;;;5076491;27;20051;-24
2022/07/22 05:23:57;;;;;;;3.15;2.35;;;23.10;67.40;;;;;;5077198;27;20072;-22
2022/07/22 05:26:24;;;;;;;4.45;3.00;;;23.10;67.50;;;;;;5077675;27;20524;-21
2022/07/22 05:28:49;;;;;;;4.50;2.67;;;22.80;68.50;;;;;;5079453;27;20663;-25
2022/07/22 05:31:15;;;;;;;3.33;2.60;;;22.80;69.30;;;;;;5075484;28;20131;-26
2022/07/22 05:33:40;;;;;;;4.20;2.80;;;22.70;69.10;;;;;;5069463;27;20079;-21
2022/07/22 05:36:08;;;;;;;2.72;2.53;;;22.60;69.20;;;;;;5073878;27;20158;-21
2022/07/22 05:38:34;;;;;;;3.20;2.90;;;22.60;69.30;;;;;;5074269;27;20116;-22
2022/07/22 05:41:00;;;;;;;2.78;2.58;;;22.60;69.40;;;;;;5073946;27;20048;-26
2022/07/22 05:43:25;;;;;;;4.68;2.88;;;22.50;69.70;;;;;;5077541;28;20093;-25
2022/07/22 05:45:51;;;;;;;3.20;3.00;;;22.60;69.60;;;;;;5075474;27;20063;-22
2022/07/22 05:48:16;;;;;;;2.83;2.47;;;22.50;69.80;;;;;;5075814;27;20097;-22
2022/07/22 05:50:42;;;;;;;3.17;2.78;;;22.40;70.30;;;;;;5074510;27;20059;-22
2022/07/22 05:53:07;;;;;;;3.10;2.80;;;22.50;69.80;;;;;;5074558;27;20154;-22
2022/07/22 05:55:33;;;;;;;3.00;2.80;;;22.60;69.60;;;;;;5072840;27;20052;-22
2022/07/22 05:57:59;;;;;;;2.55;2.35;;;22.20;70.80;;;;;;5079580;27;20301;-24
2022/07/22 06:00:24;;;;;;;2.63;2.42;;;22.20;71.10;;;;;;5075671;27;20134;-22
2022/07/22 06:02:50;;;;;;;2.60;2.40;;;22.20;71.10;;;;;;5078254;28;20051;-22
2022/07/22 06:05:15;;;;;;;2.90;2.55;;;22.30;70.90;;;;;;5078182;27;20119;-21
2022/07/22 06:07:41;;;;;;;2.83;2.45;;;22.30;71.10;;;;;;5072461;27;20036;-23
2022/07/22 06:10:07;;;;;;;3.00;2.70;;;22.30;71.40;;;;;;5085086;27;20036;-25
2022/07/22 06:12:32;;;;;;;4.60;2.17;;;22.20;71.40;;;;;;5081875;27;20044;-22
2022/07/22 06:14:58;;;;;;;2.00;1.80;;;22.40;70.80;;;;;;5081483;27;20410;-22
2022/07/22 06:17:23;;;;;;;1.90;1.77;;;22.60;70.10;;;;;;5079559;27;20052;-22
2022/07/22 06:19:49;;;;;;;1.90;1.80;;;22.70;69.40;;;;;;5076240;28;20052;-23
2022/07/22 06:22:17;;;;;;;2.28;1.90;;;22.80;69.10;;;;;;5079768;27;20154;-25
2022/07/22 06:24:43;;;;;;;1.48;1.45;;;22.90;68.50;;;;;;5076020;27;21116;-34
2022/07/22 06:27:08;;;;;;;1.55;1.45;;;23.00;68.30;;;;;;5075010;27;20051;-24
2022/07/22 06:29:34;;;;;;;1.63;1.52;;;23.00;68.10;;;;;;5076579;27;20052;-26
2022/07/22 06:31:59;;;;;;;2.08;1.70;;;23.10;67.80;;;;;;5077069;28;20102;-25
2022/07/22 06:34:25;;;;;;;1.40;1.30;;;23.10;67.50;;;;;;5077841;28;20256;-19
2022/07/22 06:36:51;;;;;;;2.03;1.52;;;23.10;67.40;;;;;;5074367;27;20055;-19
2022/07/22 06:39:16;;;;;;;1.73;1.63;;;23.20;67.20;;;;;;5073624;27;20052;-20
2022/07/22 06:41:42;;;;;;;2.20;1.85;;;23.20;67.10;;;;;;5082186;27;20044;-19
2022/07/22 06:44:07;;;;;;;1.50;1.40;;;23.30;66.90;;;;;;5077535;28;21744;-20
2022/07/22 06:46:33;;;;;;;1.63;1.52;;;23.30;66.70;;;;;;5081366;27;20102;-19
2022/07/22 06:48:59;;;;;;;1.50;1.40;;;23.40;66.60;;;;;;5078385;27;20731;-19
2022/07/22 06:51:24;;;;;;;1.58;1.48;;;23.40;66.40;;;;;;5076023;28;20051;-18
2022/07/22 06:53:50;;;;;;;2.13;1.50;;;23.40;66.30;;;;;;5075796;27;20546;-19
2022/07/22 06:56:15;;;;;;;1.40;1.30;;;23.40;66.50;;;;;;5083098;27;20043;-19
2022/07/22 06:58:41;;;;;;;1.67;1.58;;;23.40;66.40;;;;;;5082758;27;20514;-19
2022/07/22 07:01:07;;;;;;;1.50;1.40;;;23.40;66.40;;;;;;5086037;27;20040;-21
2022/07/22 07:03:32;;;;;;;1.50;1.42;;;23.40;66.00;;;;;;5087459;27;20040;-19
2022/07/22 07:05:58;;;;;;;1.85;1.73;;;23.50;65.80;;;;;;5089616;27;20044;-20
2022/07/22 07:08:23;;;;;;;1.48;1.38;;;23.50;65.70;;;;;;5089434;27;20040;-20
2022/07/22 07:10:49;;;;;;;1.67;1.58;;;23.50;65.50;;;;;;5088022;27;20048;-21
2022/07/22 07:13:14;;;;;;;1.80;1.40;;;23.50;65.30;;;;;;5091185;27;20426;-19
2022/07/22 07:15:40;;;;;;;2.22;1.50;;;23.60;65.30;;;;;;5088661;27;20042;-26
2022/07/22 07:18:05;;;;;;;1.60;1.40;;;23.60;65.10;;;;;;5088715;27;20120;-19
2022/07/22 07:20:31;;;;;;;1.55;1.45;;;23.60;65.00;;;;;;5086942;27;20048;-22
2022/07/22 07:23:00;;;;;;;2.00;1.42;;;23.60;64.90;;;;;;5089349;27;20533;-19
2022/07/22 07:25:25;;;;;;;1.05;0.95;;;23.60;64.80;;;;;;5090152;27;20506;-19
2022/07/22 07:27:51;;;;;;;1.27;1.27;;;23.70;64.70;;;;;;5089372;27;20055;-19
2022/07/22 07:30:17;;;;;;;1.50;1.40;;;23.60;64.60;;;;;;5088994;27;20097;-19
2022/07/22 07:32:42;;;;;;;1.15;1.05;;;23.60;64.60;;;;;;5088299;27;20505;-18
2022/07/22 07:35:08;;;;;;;1.50;1.40;;;23.60;64.60;;;;;;5089074;27;20070;-19
2022/07/22 07:37:34;;;;;;;1.30;1.20;;;23.70;65.30;;;;;;5088822;27;20093;-19
2022/07/22 07:40:00;;;;;;;1.20;1.20;;;23.70;64.40;;;;;;5094881;27;20469;-19
2022/07/22 07:42:25;;;;;;;1.38;1.27;;;23.70;64.30;;;;;;5087794;27;20544;-19
2022/07/22 07:44:51;;;;;;;1.13;1.13;;;23.70;64.20;;;;;;5088473;27;20052;-19
2022/07/22 07:47:18;;;;;;;0.98;0.98;;;23.70;64.20;;;;;;5088860;27;20510;-19
2022/07/22 07:49:47;;;;;;;1.45;1.30;;;23.70;64.20;;;;;;5088191;27;20122;-19
2022/07/22 07:52:13;;;;;;;1.60;1.50;;;23.70;64.10;;;;;;5090305;27;20056;-19
2022/07/22 07:54:39;;;;;;;1.35;1.25;;;23.70;64.80;;;;;;5088336;27;20525;-19
2022/07/22 07:57:10;;;;;;;1.15;1.10;;;23.70;63.90;;;;;;5088936;27;20044;-19
2022/07/22 07:59:36;;;;;;;1.35;1.30;;;23.70;63.90;;;;;;5086418;27;20082;-19
2022/07/22 08:02:01;;;;;;;1.25;1.13;;;23.70;63.90;;;;;;5088950;27;20062;-19
2022/07/22 08:04:27;;;;;;;1.42;1.30;;;23.70;63.80;;;;;;5090237;27;20517;-19
2022/07/22 08:06:53;;;;;;;1.15;1.15;;;23.70;63.80;;;;;;5088701;27;20048;-19
2022/07/22 08:09:18;;;;;;;1.33;1.00;;;23.70;63.80;;;;;;5088657;27;20051;-19
2022/07/22 08:11:44;;;;;;;1.15;1.05;;;23.70;63.70;;;;;;5088123;27;20050;-19
2022/07/22 08:14:09;;;;;;;1.50;1.05;;;23.70;63.70;;;;;;5088722;27;20024;-19
2022/07/22 08:16:35;;;;;;;0.82;0.82;;;23.70;63.60;;;;;;5088237;27;20457;-19
2022/07/22 08:19:00;;;;;;;1.10;1.10;;;23.70;63.60;;;;;;5090036;27;20036;-19
2022/07/22 08:21:26;;;;;;;1.20;1.20;;;23.80;63.70;;;;;;5087146;27;20127;-19
2022/07/22 08:23:52;;;;;;;1.48;1.27;;;23.70;63.70;;;;;;5087962;27;20094;-19
2022/07/22 08:26:18;;;;;;;1.15;1.15;;;23.70;63.60;;;;;;5088760;27;20485;-19
2022/07/22 08:28:43;;;;;;;1.10;1.10;;;23.80;63.60;;;;;;5087709;27;20040;-19
2022/07/22 08:31:09;;;;;;;1.17;1.08;;;23.70;63.50;;;;;;5088998;27;20036;-19
2022/07/22 08:33:35;;;;;;;1.20;1.20;;;23.80;63.50;;;;;;5088056;27;20076;-19
2022/07/22 08:36:00;;;;;;;1.30;1.23;;;23.80;63.50;;;;;;5088716;27;20482;-19
2022/07/22 08:38:26;;;;;;;1.70;1.10;;;23.80;63.60;;;;;;5090856;27;20066;-19
2022/07/22 08:40:54;;;;;;;1.17;1.17;;;23.70;63.40;;;;;;5092124;27;20102;-19
2022/07/22 08:43:20;;;;;;;1.20;1.10;;;23.70;63.40;;;;;;5090580;28;20047;-20
2022/07/22 08:45:46;;;;;;;1.00;1.00;;;23.70;63.40;;;;;;5091950;27;20044;-19
2022/07/22 08:48:12;;;;;;;1.13;1.10;;;23.80;63.50;;;;;;5090947;28;20078;-19
2022/07/22 08:50:37;;;;;;;0.80;0.80;;;23.80;63.50;;;;;;5091756;27;20459;-19
2022/07/22 08:53:03;;;;;;;1.25;1.10;;;23.80;63.50;;;;;;5092534;27;20040;-20
2022/07/22 08:55:29;;;;;;;1.52;1.05;;;23.80;63.40;;;;;;5093848;27;20126;-19
2022/07/22 08:57:54;;;;;;;1.60;1.50;;;23.80;63.40;;;;;;5092389;27;20048;-19
2022/07/22 09:00:21;;;;;;;1.45;1.20;;;23.80;63.30;;;;;;5090465;27;20048;-19
2022/07/22 09:02:47;;;;;;;1.17;1.17;;;23.70;63.30;;;;;;5091772;27;20106;-19
2022/07/22 09:05:14;;;;;;;1.10;1.10;;;23.70;63.30;;;;;;5092291;27;20048;-19
2022/07/22 09:07:41;;;;;;;1.30;1.20;;;23.80;63.30;;;;;;5091998;27;20422;-19
2022/07/22 09:10:12;;;;;;;1.40;1.30;;;23.70;63.30;;;;;;5092321;27;20060;-19
2022/07/22 09:13:04;;;;;;;1.25;1.15;;;23.70;63.30;;;;;;5091150;27;20052;-18
2022/07/22 09:15:32;;;;;;;1.10;1.05;;;23.80;63.20;;;;;;5090266;27;20193;-19
2022/07/22 09:17:58;;;;;;;1.10;1.10;;;23.80;63.30;;;;;;5089803;27;20131;-19
2022/07/22 09:20:24;;;;;;;0.90;0.90;;;23.80;63.20;;;;;;5091851;28;20127;-19
2022/07/22 09:22:49;;;;;;;1.00;1.00;;;23.80;63.20;;;;;;5091165;27;20541;-19
2022/07/22 09:25:27;;;;;;;1.10;1.10;;;23.70;63.20;;;;;;5093747;27;20047;-19
2022/07/22 09:27:55;;;;;;;0.90;0.90;;;23.80;63.20;;;;;;5090396;27;20473;-19
2022/07/22 09:30:25;;;;;;;1.00;1.00;;;23.70;63.20;;;;;;5091600;27;20093;-19
2022/07/22 09:32:54;;;;;;;1.15;1.05;;;23.70;63.20;;;;;;5091125;27;20044;-19
2022/07/22 09:35:19;;;;;;;0.80;0.80;;;23.80;64.00;;;;;;5091650;27;20063;-19
2022/07/22 09:37:56;;;;;;;0.90;0.90;;;23.70;63.90;;;;;;5090472;27;20075;-20
2022/07/22 09:40:26;;;;;;;0.88;0.80;;;23.70;63.20;;;;;;5088705;28;20048;-19
2022/07/22 09:42:59;;;;;;;1.00;1.00;;;23.70;63.20;;;;;;5088743;27;20044;-28
2022/07/22 09:45:27;;;;;;;0.90;0.90;;;23.70;63.10;;;;;;5090022;27;20054;-19
2022/07/22 09:47:54;;;;;;;0.80;0.80;;;23.70;63.20;;;;;;5087775;27;20036;-19
2022/07/22 09:50:30;;;;;;;1.20;1.20;;;23.70;63.30;;;;;;5090263;27;20040;-20
2022/07/22 09:52:57;;;;;;;0.75;0.75;;;23.70;63.20;;;;;;5074681;28;20048;-19
2022/07/22 09:55:23;;;;;;;0.88;0.88;;;23.70;63.20;;;;;;5092164;27;20036;-20
2022/07/22 09:57:50;;;;;;;1.10;1.10;;;23.70;63.20;;;;;;5089785;27;20505;-20
2022/07/22 10:00:21;;;;;;;1.02;1.02;;;23.70;63.20;;;;;;5089664;27;20052;-19
2022/07/22 10:02:48;;;;;;;1.15;1.15;;;23.70;63.10;;;;;;5089213;27;20520;-20
2022/07/22 10:05:14;;;;;;;0.93;0.93;;;23.70;64.00;;;;;;5089982;27;20135;-19
2022/07/22 10:07:43;;;;;;;0.80;0.80;;;23.70;63.10;;;;;;5087246;27;20078;-19
2022/07/22 10:10:10;;;;;;;0.90;0.90;;;23.70;63.20;;;;;;4730571;27;10000585;-19
2022/07/22 10:12:36;;;;;;;1.00;1.00;;;23.70;63.20;;;;;;5079455;27;20134;-20
2022/07/22 10:15:02;;;;;;;1.17;1.17;;;23.70;63.90;;;;;;5068039;28;20041;-19
2022/07/22 10:17:28;;;;;;;1.10;1.10;;;23.70;63.20;;;;;;5081295;27;20166;-19
2022/07/22 10:19:53;;;;;;;1.10;1.10;;;23.70;63.20;;;;;;5084051;28;20482;-19
2022/07/22 10:22:41;;;;;;;0.85;0.85;;;23.70;63.10;;;;;;5082890;27;20185;-19
2022/07/22 10:25:07;;;;;;;0.90;0.90;;;23.70;63.20;;;;;;5074000;28;20041;-19
2022/07/22 10:27:45;;;;;;;0.90;0.90;;;23.70;63.20;;;;;;5074509;28;20576;-19
2022/07/22 10:30:12;;;;;;;1.60;1.00;;;23.70;63.20;;;;;;5079108;28;20510;-19
2022/07/22 10:32:37;;;;;;;1.60;1.08;;;23.70;63.40;;;;;;5076290;28;20060;-20
2022/07/22 10:35:09;;;;;;;0.77;0.77;;;23.70;63.40;;;;;;5077733;28;20543;-20
2022/07/22 10:37:34;;;;;;;0.90;0.90;;;23.70;63.50;;;;;;5076232;27;20055;-20
2022/07/22 10:40:13;;;;;;;0.80;0.80;;;23.70;63.60;;;;;;5032025;27;1116895;-20
2022/07/22 10:42:57;;;;;;;0.90;0.90;;;23.70;63.70;;;;;;5075846;27;20046;-20
2022/07/22 10:45:43;;;;;;;;;;;23.70;63.60;;;;;;5083189;28;20040;-19
2022/07/22 10:48:10;;;;;;;0.80;0.80;;;23.70;63.80;;;;;;5077453;28;19916;-19
2022/07/22 10:50:37;;;;;;;0.95;0.95;;;23.60;63.90;;;;;;5078570;27;20048;-19
2022/07/22 10:53:13;;;;;;;0.98;0.98;;;23.70;64.20;;;;;;5078190;27;20133;-19
2022/07/22 10:55:58;;;;;;;1.48;1.30;;;23.70;64.30;;;;;;5075826;27;20052;-20
2022/07/22 10:58:33;;;;;;;1.48;1.23;;;23.70;64.50;;;;;;5078389;27;20410;-19
2022/07/22 11:01:09;;;;;;;1.55;1.45;;;23.70;64.90;;;;;;5077725;27;20437;-19
2022/07/22 11:03:35;;;;;;;1.60;1.50;;;23.70;65.10;;;;;;5073830;27;20072;-28
2022/07/22 11:06:17;;;;;;;1.73;1.63;;;23.70;65.30;;;;;;5074733;27;20055;-19
2022/07/22 11:08:42;;;;;;;2.20;2.00;;;23.80;65.40;;;;;;5075553;27;20036;-20
2022/07/22 11:11:08;;;;;;;2.30;2.20;;;23.70;65.50;;;;;;5073691;27;20066;-20
2022/07/22 11:13:35;;;;;;;1.95;1.85;;;23.80;65.60;;;;;;5078705;27;20043;-19
2022/07/22 11:16:20;;;;;;;2.20;2.10;;;23.80;65.80;;;;;;5075197;27;20055;-20
2022/07/22 11:19:02;;;;;;;2.45;2.25;;;23.80;66.10;;;;;;5077367;27;20135;-20
2022/07/22 11:21:29;;;;;;;2.03;1.92;;;23.80;66.40;;;;;;5077527;27;20040;-19
2022/07/22 11:23:57;;;;;;;2.60;2.38;;;23.80;66.40;;;;;;5076699;27;20453;-20
2022/07/22 11:26:44;;;;;;;2.92;2.72;;;23.80;66.60;;;;;;5079989;27;20466;-19
2022/07/22 11:29:10;;;;;;;2.80;2.60;;;23.80;66.80;;;;;;5078520;27;20040;-19
2022/07/22 11:31:38;;;;;;;2.97;2.78;;;23.80;67.00;;;;;;5081536;27;20052;-20
2022/07/22 11:34:10;;;;;;;4.25;3.00;;;23.80;67.00;;;;;;5078567;27;20096;-19
2022/07/22 11:36:37;;;;;;;2.78;2.58;;;23.80;67.00;;;;;;5076158;27;20207;-19
2022/07/22 11:39:03;;;;;;;3.03;2.83;;;23.80;66.80;;;;;;5070551;28;20044;-19
2022/07/22 11:41:30;;;;;;;4.80;3.17;;;23.80;67.40;;;;;;5076993;27;20055;-20
2022/07/22 11:43:56;;;;;;;3.20;3.00;;;23.80;67.60;;;;;;5079244;27;20131;-19
2022/07/22 11:46:23;;;;;;;3.28;3.08;;;23.90;68.00;;;;;;5077750;27;20131;-19
2022/07/22 11:48:48;;;;;;;3.15;2.88;;;23.90;66.80;;;;;;5077001;27;20100;-19
2022/07/22 11:51:15;;;;;;;3.28;3.08;;;23.90;67.60;;;;;;5074323;27;20472;-19
2022/07/22 11:53:41;;;;;;;2.72;2.53;;;23.90;67.20;;;;;;5074342;27;20036;-18
2022/07/22 11:56:07;;;;;;;2.40;2.20;;;23.90;66.40;;;;;;5086322;27;20131;-19
2022/07/22 11:58:46;;;;;;;2.33;2.10;;;23.90;65.50;;;;;;5086670;27;20043;-19
2022/07/22 12:01:13;;;;;;;2.47;2.33;;;23.90;64.50;;;;;;5074467;28;20067;-19
2022/07/22 12:03:44;;;;;;;2.10;2.00;;;23.90;64.80;;;;;;5075310;28;20036;-19
2022/07/22 12:06:11;;;;;;;2.35;2.25;;;23.90;65.00;;;;;;5073528;28;20544;-19
2022/07/22 12:08:40;;;;;;;2.92;2.80;;;23.90;65.80;;;;;;5074066;28;20036;-19
2022/07/22 12:11:06;;;;;;;3.28;3.08;;;23.90;66.50;;;;;;5072253;28;20518;-19
2022/07/22 12:13:32;;;;;;;2.90;2.70;;;23.90;66.30;;;;;;5071918;28;20044;-19
2022/07/22 12:15:58;;;;;;;2.85;2.47;;;23.90;66.60;;;;;;5074586;28;20094;-20
2022/07/22 12:18:25;;;;;;;2.92;2.72;;;23.90;66.50;;;;;;5079922;28;20082;-19
2022/07/22 12:20:51;;;;;;;3.05;2.80;;;23.90;66.50;;;;;;5082938;27;20114;-20
2022/07/22 12:23:17;;;;;;;2.53;2.33;;;23.90;66.40;;;;;;5086924;27;20047;-19
2022/07/22 12:26:09;;;;;;;2.22;2.10;;;23.90;65.30;;;;;;5071477;28;20060;-19
2022/07/22 12:28:35;;;;;;;2.00;1.90;;;23.90;65.00;;;;;;5085332;27;20518;-19
2022/07/22 12:31:00;;;;;;;1.95;1.85;;;23.90;64.70;;;;;;5089571;27;20051;-20
2022/07/22 12:33:26;;;;;;;2.00;1.90;;;23.90;64.60;;;;;;5085761;28;20059;-19
2022/07/22 12:36:02;;;;;;;2.17;2.08;;;23.90;64.40;;;;;;5087595;27;20526;-19
2022/07/22 12:38:28;;;;;;;1.98;1.88;;;23.90;64.30;;;;;;5088333;27;20063;-21
2022/07/22 12:40:54;;;;;;;2.30;1.90;;;23.90;64.20;;;;;;5087629;27;20511;-19
2022/07/22 12:43:24;;;;;;;1.92;1.83;;;23.90;64.20;;;;;;5090582;27;20411;-19
2022/07/22 12:45:49;;;;;;;1.80;1.75;;;23.90;64.20;;;;;;5088300;27;20119;-18